createdAt,value
2018-04-29T00:00:09.469Z,17.41
2018-04-29T00:02:36.141Z,17.45
2018-04-29T00:05:02.879Z,17.41
2018-04-29T00:07:29.536Z,17.45
2018-04-29T00:09:56.213Z,17.47
2018-04-29T00:12:22.862Z,17.46
2018-04-29T00:14:49.518Z,17.46
2018-04-29T00:17:16.173Z,17.43
2018-04-29T00:19:42.828Z,17.40
2018-04-29T00:22:09.515Z,17.34
2018-04-29T00:24:36.160Z,17.36
2018-04-29T00:27:02.848Z,17.38
2018-04-29T00:29:29.500Z,17.34
2018-04-29T00:31:56.908Z,17.26
2018-04-29T00:34:23.575Z,17.21
2018-04-29T00:36:50.256Z,17.16
2018-04-29T00:39:16.936Z,16.99
2018-04-29T00:41:43.589Z,16.85
2018-04-29T00:44:10.248Z,16.76
2018-04-29T00:46:37.640Z,16.67
2018-04-29T00:49:04.320Z,16.57
2018-04-29T00:51:49.366Z,16.51
2018-04-29T00:54:16.044Z,16.45
2018-04-29T00:56:43.428Z,16.39
2018-04-29T00:59:10.188Z,16.36
2018-04-29T01:01:36.868Z,16.28
2018-04-29T01:04:04.276Z,16.36
2018-04-29T01:06:30.935Z,16.44
2018-04-29T01:08:57.596Z,16.58
2018-04-29T01:11:24.248Z,16.40
2018-04-29T01:13:51.661Z,16.31
2018-04-29T01:16:18.345Z,16.26
2018-04-29T01:18:45.741Z,16.26
2018-04-29T01:21:13.180Z,16.24
2018-04-29T01:23:39.861Z,16.14
2018-04-29T01:26:06.508Z,16.04
2018-04-29T01:28:33.167Z,15.95
2018-04-29T01:31:00.626Z,15.77
2018-04-29T01:33:28.068Z,15.56
2018-04-29T01:35:55.508Z,15.39
2018-04-29T01:38:22.960Z,15.27
2018-04-29T01:40:49.640Z,15.20
2018-04-29T01:43:16.305Z,15.65
2018-04-29T01:45:43.748Z,15.77
2018-04-29T01:48:10.864Z,15.80
2018-04-29T01:50:38.399Z,15.71
2018-04-29T01:53:06.004Z,15.58
2018-04-29T01:55:32.716Z,15.50
2018-04-29T01:58:00.191Z,15.77
2018-04-29T02:00:26.989Z,15.77
2018-04-29T02:02:53.775Z,15.78
2018-04-29T02:05:20.428Z,15.72
2018-04-29T02:07:47.081Z,16.02
2018-04-29T02:10:13.736Z,15.96
2018-04-29T02:12:40.443Z,16.15
2018-04-29T02:15:07.121Z,16.19
2018-04-29T02:17:33.795Z,16.08
2018-04-29T02:20:01.217Z,16.00
2018-04-29T02:22:27.858Z,15.90
2018-04-29T02:24:54.508Z,15.58
2018-04-29T02:27:21.164Z,15.26
2018-04-29T02:29:48.556Z,15.02
2018-04-29T02:32:15.212Z,14.92
2018-04-29T02:34:41.875Z,14.87
2018-04-29T02:37:08.566Z,14.84
2018-04-29T02:39:35.222Z,14.79
2018-04-29T02:42:01.931Z,14.82
2018-04-29T02:44:28.671Z,14.87
2018-04-29T02:46:55.379Z,14.99
2018-04-29T02:49:22.829Z,15.12
2018-04-29T02:51:49.524Z,15.20
2018-04-29T02:54:16.229Z,15.25
2018-04-29T02:56:43.702Z,15.24
2018-04-29T02:59:10.397Z,15.21
2018-04-29T03:01:37.121Z,15.21
2018-04-29T03:04:03.878Z,15.12
2018-04-29T03:06:30.572Z,15.05
2018-04-29T03:08:57.274Z,15.03
2018-04-29T03:11:24.752Z,14.99
2018-04-29T03:13:51.475Z,14.99
2018-04-29T03:16:18.880Z,15.04
2018-04-29T03:18:45.531Z,15.01
2018-04-29T03:21:12.235Z,15.08
2018-04-29T03:23:38.931Z,15.64
2018-04-29T03:26:06.371Z,15.60
2018-04-29T03:28:33.076Z,15.59
2018-04-29T03:30:59.784Z,15.61
2018-04-29T03:33:26.491Z,15.59
2018-04-29T03:35:53.216Z,15.60
2018-04-29T03:38:19.931Z,15.59
2018-04-29T03:40:46.683Z,15.64
2018-04-29T03:43:13.437Z,15.62
2018-04-29T03:45:40.157Z,15.65
2018-04-29T03:48:06.858Z,15.69
2018-04-29T03:50:33.563Z,15.74
2018-04-29T03:53:00.263Z,15.73
2018-04-29T03:55:27.015Z,15.80
2018-04-29T03:58:12.303Z,15.48
2018-04-29T04:00:57.869Z,15.31
2018-04-29T04:03:42.903Z,15.23
2018-04-29T04:06:09.642Z,15.24
2018-04-29T04:08:36.351Z,15.23
2018-04-29T04:11:06.456Z,15.12
2018-04-29T04:13:33.948Z,15.07
2018-04-29T04:16:01.426Z,15.03
2018-04-29T04:18:28.123Z,15.20
2018-04-29T04:20:54.856Z,15.22
2018-04-29T04:23:21.543Z,15.28
2018-04-29T04:25:48.196Z,15.58
2018-04-29T04:28:14.854Z,15.49
2018-04-29T04:30:41.534Z,15.43
2018-04-29T04:33:08.928Z,15.51
2018-04-29T04:35:35.594Z,15.49
2018-04-29T04:38:02.523Z,15.52
2018-04-29T04:40:29.246Z,15.55
2018-04-29T04:42:55.968Z,15.53
2018-04-29T04:45:22.691Z,15.44
2018-04-29T04:47:49.425Z,15.52
2018-04-29T04:50:16.920Z,15.59
2018-04-29T04:52:44.318Z,15.67
2018-04-29T04:55:10.996Z,15.64
2018-04-29T04:57:37.663Z,15.67
2018-04-29T05:00:04.368Z,15.78
2018-04-29T05:02:31.008Z,15.88
2018-04-29T05:04:57.656Z,15.87
2018-04-29T05:07:24.327Z,15.80
2018-04-29T05:09:51.005Z,15.79
2018-04-29T05:12:18.460Z,15.55
2018-04-29T05:14:45.941Z,15.46
2018-04-29T05:17:12.751Z,15.54
2018-04-29T05:19:40.196Z,15.69
2018-04-29T05:22:06.904Z,15.75
2018-04-29T05:24:33.641Z,15.76
2018-04-29T05:27:00.324Z,15.98
2018-04-29T05:29:27.816Z,16.19
2018-04-29T05:31:54.561Z,16.35
2018-04-29T05:34:21.248Z,16.58
2018-04-29T05:36:48.708Z,16.77
2018-04-29T05:39:15.396Z,16.98
2018-04-29T05:41:42.108Z,17.35
2018-04-29T05:44:08.843Z,17.90
2018-04-29T05:46:36.317Z,17.88
2018-04-29T05:49:03.116Z,17.87
2018-04-29T05:51:29.884Z,17.79
2018-04-29T05:53:57.339Z,17.87
2018-04-29T05:56:24.772Z,17.95
2018-04-29T05:58:51.494Z,17.98
2018-04-29T06:01:18.230Z,18.01
2018-04-29T06:03:44.932Z,18.10
2018-04-29T06:06:11.697Z,18.10
2018-04-29T06:08:38.380Z,18.13
2018-04-29T06:11:05.808Z,18.15
2018-04-29T06:13:32.490Z,18.31
2018-04-29T06:15:59.177Z,18.29
2018-04-29T06:18:25.892Z,18.26
2018-04-29T06:20:52.565Z,18.51
2018-04-29T06:23:19.237Z,18.99
2018-04-29T06:25:46.672Z,19.61
2018-04-29T06:28:13.333Z,19.94
2018-04-29T06:30:40.748Z,20.41
2018-04-29T06:33:07.497Z,20.85
2018-04-29T06:35:34.139Z,21.14
2018-04-29T06:38:00.827Z,21.26
2018-04-29T06:40:27.492Z,21.03
2018-04-29T06:42:54.160Z,20.89
2018-04-29T06:45:20.837Z,21.04
2018-04-29T06:47:47.562Z,20.83
2018-04-29T06:50:14.244Z,20.78
2018-04-29T06:52:40.912Z,20.84
2018-04-29T06:55:07.560Z,20.98
2018-04-29T06:57:34.992Z,21.58
2018-04-29T07:00:01.712Z,21.64
2018-04-29T07:02:28.444Z,22.02
2018-04-29T07:04:55.098Z,22.33
2018-04-29T07:07:21.767Z,22.57
2018-04-29T07:09:51.366Z,22.67
2018-04-29T07:12:18.020Z,23.21
2018-04-29T07:14:45.400Z,23.44
2018-04-29T07:17:12.073Z,23.71
2018-04-29T07:19:38.749Z,23.94
2018-04-29T07:22:06.159Z,23.52
2018-04-29T07:24:32.808Z,23.33
2018-04-29T07:26:59.465Z,23.22
2018-04-29T07:29:26.158Z,22.97
2018-04-29T07:32:04.735Z,23.05
2018-04-29T07:34:32.160Z,23.59
2018-04-29T07:36:59.660Z,24.34
2018-04-29T07:39:26.338Z,24.57
2018-04-29T07:41:53.003Z,25.02
2018-04-29T07:44:19.693Z,25.29
2018-04-29T07:46:46.346Z,25.96
2018-04-29T07:49:13.860Z,25.67
2018-04-29T07:51:41.263Z,25.81
2018-04-29T07:54:07.948Z,26.01
2018-04-29T07:56:35.348Z,26.68
2018-04-29T07:59:02.002Z,26.39
2018-04-29T08:01:28.641Z,26.83
2018-04-29T08:03:55.313Z,26.40
2018-04-29T08:06:21.996Z,26.15
2018-04-29T08:08:48.643Z,26.17
2018-04-29T08:11:15.341Z,25.91
2018-04-29T08:13:42.750Z,25.76
2018-04-29T08:16:09.436Z,25.70
2018-04-29T08:18:36.110Z,25.93
2018-04-29T08:21:02.793Z,26.17
2018-04-29T08:23:29.475Z,26.61
2018-04-29T08:25:56.658Z,26.54
2018-04-29T08:28:23.340Z,26.45
2018-04-29T08:30:50.756Z,26.06
2018-04-29T08:33:17.423Z,26.06
2018-04-29T08:35:44.832Z,26.00
2018-04-29T08:38:11.488Z,26.63
2018-04-29T08:40:38.141Z,27.05
2018-04-29T08:43:04.846Z,27.80
2018-04-29T08:45:31.523Z,28.45
2018-04-29T08:47:58.176Z,28.50
2018-04-29T08:50:25.576Z,28.62
2018-04-29T08:52:52.229Z,28.31
2018-04-29T08:55:18.897Z,28.21
2018-04-29T08:57:46.312Z,28.23
2018-04-29T09:00:12.993Z,28.44
2018-04-29T09:02:40.404Z,29.48
2018-04-29T09:05:07.077Z,29.89
2018-04-29T09:07:33.717Z,29.99
2018-04-29T09:10:00.363Z,30.05
2018-04-29T09:12:30.964Z,30.22
2018-04-29T09:14:57.672Z,30.21
2018-04-29T09:17:24.391Z,30.65
2018-04-29T09:19:52.164Z,30.41
2018-04-29T09:22:20.031Z,29.99
2018-04-29T09:24:47.611Z,29.28
2018-04-29T09:27:14.267Z,30.11
2018-04-29T09:29:41.016Z,30.47
2018-04-29T09:32:07.676Z,29.80
2018-04-29T09:34:35.109Z,29.97
2018-04-29T09:37:01.925Z,30.13
2018-04-29T09:39:29.535Z,30.15
2018-04-29T09:41:56.968Z,30.17
2018-04-29T09:44:23.666Z,30.45
2018-04-29T09:46:50.348Z,30.89
2018-04-29T09:49:17.095Z,30.55
2018-04-29T09:51:44.568Z,30.84
2018-04-29T09:54:12.006Z,31.28
2018-04-29T09:56:38.688Z,31.07
2018-04-29T09:59:05.353Z,30.97
2018-04-29T10:01:34.863Z,30.94
2018-04-29T10:04:01.523Z,30.57
2018-04-29T10:06:28.225Z,30.87
2018-04-29T10:08:54.920Z,30.88
2018-04-29T10:11:21.640Z,31.48
2018-04-29T10:13:48.345Z,31.86
2018-04-29T10:16:14.967Z,31.72
2018-04-29T10:18:41.638Z,31.75
2018-04-29T10:21:08.325Z,32.48
2018-04-29T10:23:35.003Z,32.43
2018-04-29T10:26:01.681Z,32.23
2018-04-29T10:28:28.447Z,32.52
2018-04-29T10:30:55.153Z,33.09
2018-04-29T10:33:22.602Z,32.84
2018-04-29T10:35:49.292Z,31.94
2018-04-29T10:38:16.028Z,31.40
2018-04-29T10:40:42.721Z,30.60
2018-04-29T10:43:09.402Z,30.01
2018-04-29T10:45:36.079Z,30.21
2018-04-29T10:48:02.808Z,30.42
2018-04-29T10:50:29.478Z,30.06
2018-04-29T10:52:56.161Z,30.81
2018-04-29T10:55:23.624Z,30.62
2018-04-29T10:57:50.297Z,31.42
2018-04-29T11:00:16.978Z,31.87
2018-04-29T11:02:43.700Z,31.84
2018-04-29T11:05:11.118Z,31.87
2018-04-29T11:07:37.793Z,32.04
2018-04-29T11:10:05.286Z,30.82
2018-04-29T11:12:32.001Z,30.35
2018-04-29T11:14:58.768Z,29.98
2018-04-29T11:17:25.455Z,30.29
2018-04-29T11:19:52.133Z,30.25
2018-04-29T11:22:18.892Z,30.23
2018-04-29T11:24:46.268Z,30.22
2018-04-29T11:27:12.938Z,29.92
2018-04-29T11:29:40.380Z,30.27
2018-04-29T11:32:07.073Z,30.76
2018-04-29T11:34:33.728Z,30.21
2018-04-29T11:37:00.417Z,29.90
2018-04-29T11:39:27.838Z,30.48
2018-04-29T11:41:54.504Z,31.62
2018-04-29T11:44:21.905Z,31.48
2018-04-29T11:46:48.662Z,31.44
2018-04-29T11:49:15.389Z,32.23
2018-04-29T11:51:42.048Z,32.38
2018-04-29T11:54:08.753Z,32.53
2018-04-29T11:56:35.428Z,33.18
2018-04-29T11:59:02.145Z,32.38
2018-04-29T12:01:28.842Z,32.38
2018-04-29T12:03:55.505Z,32.20
2018-04-29T12:06:22.217Z,32.42
2018-04-29T12:08:48.917Z,32.12
2018-04-29T12:11:15.590Z,33.05
2018-04-29T12:13:43.061Z,32.55
2018-04-29T12:16:09.739Z,31.73
2018-04-29T12:18:36.400Z,31.98
2018-04-29T12:21:03.085Z,32.64
2018-04-29T12:23:29.745Z,32.19
2018-04-29T12:25:56.459Z,32.53
2018-04-29T12:28:23.152Z,31.86
2018-04-29T12:30:49.852Z,32.28
2018-04-29T12:33:16.569Z,32.76
2018-04-29T12:35:43.224Z,32.30
2018-04-29T12:38:09.910Z,31.92
2018-04-29T12:40:36.577Z,32.09
2018-04-29T12:43:03.305Z,31.84
2018-04-29T12:45:30.793Z,31.84
2018-04-29T12:47:57.490Z,31.22
2018-04-29T12:50:24.161Z,30.92
2018-04-29T12:52:50.828Z,30.21
2018-04-29T12:55:17.581Z,30.54
2018-04-29T12:57:44.262Z,31.14
2018-04-29T13:00:11.765Z,30.21
2018-04-29T13:02:38.395Z,29.41
2018-04-29T13:05:05.145Z,30.59
2018-04-29T13:07:31.827Z,32.10
2018-04-29T13:09:59.274Z,32.84
2018-04-29T13:12:25.960Z,33.48
2018-04-29T13:14:52.640Z,33.09
2018-04-29T13:17:19.327Z,32.69
2018-04-29T13:19:45.987Z,32.67
2018-04-29T13:22:12.724Z,32.50
2018-04-29T13:24:39.466Z,32.48
2018-04-29T13:27:06.143Z,31.78
2018-04-29T13:29:33.634Z,32.08
2018-04-29T13:32:01.045Z,32.76
2018-04-29T13:34:27.732Z,32.57
2018-04-29T13:36:54.422Z,31.11
2018-04-29T13:39:21.124Z,30.36
2018-04-29T13:41:47.792Z,30.38
2018-04-29T13:44:14.497Z,30.27
2018-04-29T13:46:41.203Z,29.62
2018-04-29T13:49:07.912Z,29.88
2018-04-29T13:51:35.529Z,29.99
2018-04-29T13:54:02.204Z,30.02
2018-04-29T13:56:28.915Z,30.24
2018-04-29T13:58:55.653Z,30.84
2018-04-29T14:01:22.303Z,31.00
2018-04-29T14:03:49.012Z,30.74
2018-04-29T14:06:15.664Z,31.06
2018-04-29T14:08:42.364Z,31.20
2018-04-29T14:11:09.777Z,31.36
2018-04-29T14:13:36.477Z,31.33
2018-04-29T14:16:03.287Z,32.06
2018-04-29T14:18:29.892Z,31.92
2018-04-29T14:20:56.577Z,32.44
2018-04-29T14:23:24.021Z,32.76
2018-04-29T14:25:50.686Z,33.17
2018-04-29T14:28:17.365Z,31.94
2018-04-29T14:30:44.044Z,31.50
2018-04-29T14:33:11.449Z,30.78
2018-04-29T14:35:38.128Z,29.83
2018-04-29T14:38:05.609Z,29.75
2018-04-29T14:40:32.329Z,29.73
2018-04-29T14:42:59.756Z,29.91
2018-04-29T14:45:27.189Z,30.18
2018-04-29T14:47:53.851Z,30.75
2018-04-29T14:50:20.548Z,29.99
2018-04-29T14:52:47.228Z,29.93
2018-04-29T14:55:13.934Z,30.33
2018-04-29T14:57:40.611Z,30.13
2018-04-29T15:00:07.304Z,30.20
2018-04-29T15:02:34.022Z,30.16
2018-04-29T15:05:01.562Z,30.45
2018-04-29T15:07:28.248Z,30.87
2018-04-29T15:09:54.916Z,31.40
2018-04-29T15:12:21.654Z,31.41
2018-04-29T15:14:48.348Z,30.52
2018-04-29T15:17:15.090Z,30.37
2018-04-29T15:19:49.795Z,30.83
2018-04-29T15:22:16.628Z,30.74
2018-04-29T15:24:44.109Z,31.67
2018-04-29T15:27:10.845Z,31.21
2018-04-29T15:29:38.301Z,30.47
2018-04-29T15:32:05.842Z,30.66
2018-04-29T15:34:33.315Z,29.91
2018-04-29T15:37:00.775Z,29.76
2018-04-29T15:39:27.474Z,29.82
2018-04-29T15:41:54.214Z,29.66
2018-04-29T15:44:21.014Z,29.85
2018-04-29T15:46:48.161Z,29.53
2018-04-29T15:49:14.870Z,29.41
2018-04-29T15:51:42.340Z,29.22
2018-04-29T15:54:09.835Z,29.57
2018-04-29T15:56:36.597Z,29.32
2018-04-29T15:59:03.347Z,29.06
2018-04-29T16:01:30.045Z,29.20
2018-04-29T16:03:56.772Z,29.07
2018-04-29T16:06:23.516Z,29.08
2018-04-29T16:08:50.181Z,29.15
2018-04-29T16:11:16.896Z,29.58
2018-04-29T16:13:43.582Z,29.52
2018-04-29T16:16:10.331Z,29.72
2018-04-29T16:18:37.809Z,28.91
2018-04-29T16:21:04.610Z,29.10
2018-04-29T16:23:31.310Z,28.71
2018-04-29T16:25:58.134Z,28.29
2018-04-29T16:28:24.846Z,28.88
2018-04-29T16:30:51.631Z,29.18
2018-04-29T16:33:18.395Z,29.20
2018-04-29T16:35:45.146Z,28.45
2018-04-29T16:38:12.689Z,27.07
2018-04-29T16:40:41.081Z,26.67
2018-04-29T16:43:07.861Z,26.17
2018-04-29T16:45:35.350Z,25.85
2018-04-29T16:48:02.386Z,25.67
2018-04-29T16:50:29.055Z,25.57
2018-04-29T16:52:55.769Z,25.46
2018-04-29T16:55:22.516Z,25.37
2018-04-29T16:57:49.228Z,25.29
2018-04-29T17:00:15.908Z,25.20
2018-04-29T17:02:43.504Z,25.06
2018-04-29T17:05:10.149Z,25.13
2018-04-29T17:07:37.593Z,25.06
2018-04-29T17:10:04.316Z,24.95
2018-04-29T17:12:31.014Z,24.84
2018-04-29T17:14:57.661Z,24.75
2018-04-29T17:17:24.349Z,24.71
2018-04-29T17:19:51.053Z,24.59
2018-04-29T17:22:18.526Z,24.43
2018-04-29T17:24:45.238Z,24.28
2018-04-29T17:27:11.914Z,24.19
2018-04-29T17:29:38.606Z,24.04
2018-04-29T17:32:05.276Z,23.94
2018-04-29T17:34:32.726Z,23.89
2018-04-29T17:36:59.396Z,23.80
2018-04-29T17:39:26.853Z,23.57
2018-04-29T17:41:54.280Z,23.47
2018-04-29T17:44:20.948Z,23.45
2018-04-29T17:46:48.401Z,23.31
2018-04-29T17:49:15.065Z,23.11
2018-04-29T17:51:41.737Z,22.91
2018-04-29T17:54:08.417Z,22.90
2018-04-29T17:56:35.142Z,22.88
2018-04-29T17:59:01.805Z,22.87
2018-04-29T18:01:29.291Z,22.76
2018-04-29T18:03:55.929Z,22.67
2018-04-29T18:06:22.617Z,22.59
2018-04-29T18:08:49.349Z,22.57
2018-04-29T18:11:16.024Z,22.51
2018-04-29T18:14:05.189Z,22.41
2018-04-29T18:16:32.661Z,22.27
2018-04-29T18:18:59.354Z,22.14
2018-04-29T18:21:26.022Z,22.02
2018-04-29T18:23:53.429Z,21.96
2018-04-29T18:26:20.132Z,21.82
2018-04-29T18:28:46.861Z,21.60
2018-04-29T18:31:17.443Z,21.50
2018-04-29T18:33:44.193Z,21.40
2018-04-29T18:36:10.912Z,21.26
2018-04-29T18:38:37.584Z,21.21
2018-04-29T18:41:05.047Z,21.10
2018-04-29T18:43:32.539Z,20.98
2018-04-29T18:45:59.320Z,20.93
2018-04-29T18:48:26.029Z,20.92
2018-04-29T18:50:52.885Z,20.83
2018-04-29T18:53:19.508Z,20.72
2018-04-29T18:55:46.222Z,20.67
2018-04-29T18:58:12.996Z,20.71
2018-04-29T19:00:39.718Z,20.74
2018-04-29T19:03:06.437Z,20.81
2018-04-29T19:05:46.714Z,20.83
2018-04-29T19:08:13.442Z,20.87
2018-04-29T19:10:41.387Z,20.90
2018-04-29T19:13:08.861Z,20.93
2018-04-29T19:15:36.436Z,21.02
2018-04-29T19:18:04.014Z,21.15
2018-04-29T19:20:30.736Z,21.24
2018-04-29T19:22:57.497Z,21.30
2018-04-29T19:25:24.181Z,21.24
2018-04-29T19:27:51.664Z,21.28
2018-04-29T19:30:18.344Z,21.30
2018-04-29T19:32:45.020Z,21.19
2018-04-29T19:35:12.447Z,21.06
2018-04-29T19:37:39.166Z,21.13
2018-04-29T19:40:05.858Z,21.07
2018-04-29T19:42:32.592Z,20.93
2018-04-29T19:45:00.030Z,20.93
2018-04-29T19:47:26.687Z,20.95
2018-04-29T19:49:54.117Z,21.03
2018-04-29T19:52:20.839Z,21.10
2018-04-29T19:54:47.493Z,21.23
2018-04-29T19:57:14.206Z,21.35
2018-04-29T19:59:40.899Z,21.29
2018-04-29T20:02:08.341Z,21.27
2018-04-29T20:04:35.769Z,21.30
2018-04-29T20:07:02.544Z,21.29
2018-04-29T20:09:30.008Z,21.17
2018-04-29T20:11:57.441Z,21.17
2018-04-29T20:14:24.145Z,21.10
2018-04-29T20:16:50.844Z,21.00
2018-04-29T20:19:18.279Z,21.04
2018-04-29T20:21:44.952Z,20.93
2018-04-29T20:24:11.675Z,20.89
2018-04-29T20:26:39.124Z,20.73
2018-04-29T20:29:06.579Z,20.68
2018-04-29T20:31:34.013Z,20.59
2018-04-29T20:34:00.745Z,20.69
2018-04-29T20:36:27.405Z,20.71
2018-04-29T20:38:54.811Z,20.65
2018-04-29T20:41:21.498Z,20.50
2018-04-29T20:43:54.134Z,20.47
2018-04-29T20:46:20.792Z,20.50
2018-04-29T20:48:47.482Z,20.56
2018-04-29T20:51:14.161Z,20.44
2018-04-29T20:53:40.837Z,20.45
2018-04-29T20:56:08.241Z,20.47
2018-04-29T20:58:34.922Z,20.48
2018-04-29T21:01:02.457Z,20.41
2018-04-29T21:03:29.112Z,20.31
2018-04-29T21:05:55.785Z,20.12
2018-04-29T21:08:22.472Z,19.99
2018-04-29T21:10:49.217Z,19.90
2018-04-29T21:13:15.894Z,19.89
2018-04-29T21:15:42.553Z,19.84
2018-04-29T21:18:09.233Z,19.92
2018-04-29T21:20:35.905Z,19.76
2018-04-29T21:23:03.342Z,19.72
2018-04-29T21:25:30.812Z,19.67
2018-04-29T21:27:58.264Z,19.59
2018-04-29T21:30:25.662Z,19.50
2018-04-29T21:32:52.357Z,19.40
2018-04-29T21:35:19.837Z,19.57
2018-04-29T21:37:46.491Z,19.34
2018-04-29T21:40:13.184Z,19.37
2018-04-29T21:42:39.865Z,19.21
2018-04-29T21:45:06.569Z,19.17
2018-04-29T21:47:33.247Z,19.12
2018-04-29T21:49:59.934Z,19.15
2018-04-29T21:52:26.609Z,19.09
2018-04-29T21:54:53.320Z,19.05
2018-04-29T21:57:19.985Z,18.98
2018-04-29T21:59:46.672Z,18.98
2018-04-29T22:02:13.354Z,18.95
2018-04-29T22:04:40.077Z,18.78
2018-04-29T22:07:07.491Z,18.66
2018-04-29T22:09:34.160Z,18.59
2018-04-29T22:12:00.814Z,18.47
2018-04-29T22:14:29.087Z,18.36
2018-04-29T22:16:56.524Z,18.31
2018-04-29T22:19:23.265Z,18.14
2018-04-29T22:21:49.929Z,18.04
2018-04-29T22:24:16.591Z,17.84
2018-04-29T22:26:43.287Z,17.82
2018-04-29T22:29:09.932Z,17.77
2018-04-29T22:31:37.319Z,17.96
2018-04-29T22:34:04.047Z,17.99
2018-04-29T22:36:30.744Z,17.90
2018-04-29T22:38:57.434Z,17.90
2018-04-29T22:41:24.122Z,17.67
2018-04-29T22:43:50.860Z,17.84
2018-04-29T22:46:17.522Z,17.87
2018-04-29T22:48:44.932Z,18.12
2018-04-29T22:51:11.612Z,18.32
2018-04-29T22:53:38.986Z,18.12
2018-04-29T22:56:05.645Z,18.05
2018-04-29T22:58:32.317Z,18.14
2018-04-29T23:00:59.028Z,18.11
2018-04-29T23:03:25.691Z,18.02
2018-04-29T23:05:52.362Z,17.99
2018-04-29T23:08:19.796Z,17.92
2018-04-29T23:10:46.450Z,17.84
2018-04-29T23:13:13.856Z,17.76
2018-04-29T23:15:40.544Z,17.69
2018-04-29T23:18:07.936Z,17.71
2018-04-29T23:20:34.624Z,17.64
2018-04-29T23:23:01.324Z,17.40
2018-04-29T23:25:27.971Z,17.18
2018-04-29T23:27:54.804Z,17.01
2018-04-29T23:30:21.457Z,16.83
2018-04-29T23:32:48.116Z,17.20
2018-04-29T23:35:14.781Z,16.93
2018-04-29T23:37:41.432Z,16.82
2018-04-29T23:40:08.092Z,16.62
2018-04-29T23:42:34.751Z,16.52
2018-04-29T23:45:01.437Z,16.38
2018-04-29T23:47:28.118Z,16.22
2018-04-29T23:49:54.792Z,16.07
2018-04-29T23:52:21.464Z,16.10
2018-04-29T23:54:48.129Z,16.19
2018-04-29T23:57:14.797Z,16.32
2018-04-29T23:59:41.449Z,16.27
